Bagley, Minnesota
Current Conditions -  °F | °C
As of 7:56 AM on Thursday 23 Oct 2014 (Local Time) from KFSE Reporting Station
Overcast Overcast  
Wind Chill: 42°   Ceiling: 8000
Heat Index: 46°   Visibility: 10mi
Dew Point: 45°   Wind: 9mph
Humidity: 93%   Direction: 180°S
Pressure: 29.9"   Gusts: NA
Location:  47.52°N, 95.4°W
Report Text: KFSE 231256Z AUTO 18008KT 10SM OVC080 08/07 A2990 RMK AO2
Loading
Personal Weather Stations






























Interactive Weather Map
Tropical Storm Tracking
New forecast layout! Learn more

10-Day Weather Forecast

Advertisements
Track Severe Weather on mobile